createdAt,value
2023-02-07T00:01:26.209Z,7.85
2023-02-07T00:03:55.051Z,5.78
2023-02-07T00:06:25.102Z,6.60
2023-02-07T00:08:52.614Z,6.78
2023-02-07T00:11:20.847Z,9.70
2023-02-07T00:13:50.407Z,7.25
2023-02-07T00:16:17.050Z,8.27
2023-02-07T00:18:43.776Z,7.70
2023-02-07T00:21:13.394Z,7.93
2023-02-07T00:23:40.306Z,8.13
2023-02-07T00:26:08.102Z,7.75
2023-02-07T00:28:35.685Z,7.60
2023-02-07T00:31:37.526Z,7.72
2023-02-07T00:34:05.821Z,7.03
2023-02-07T00:36:34.128Z,7.53
2023-02-07T00:39:03.498Z,7.35
2023-02-07T00:41:31.087Z,12.10
2023-02-07T00:43:57.673Z,7.82
2023-02-07T00:46:24.808Z,7.43
2023-02-07T00:48:52.247Z,7.47
2023-02-07T00:51:19.000Z,7.88
2023-02-07T00:53:45.654Z,7.00
2023-02-07T00:56:12.583Z,6.00
2023-02-07T00:58:39.178Z,7.78
2023-02-07T01:01:06.151Z,7.45
2023-02-07T01:03:33.259Z,7.47
2023-02-07T01:05:59.830Z,7.40
2023-02-07T01:08:26.730Z,7.82
2023-02-07T01:10:53.332Z,7.40
2023-02-07T01:13:20.116Z,7.55
2023-02-07T01:15:48.469Z,8.55
2023-02-07T01:18:15.445Z,7.65
2023-02-07T01:20:42.296Z,7.38
2023-02-07T01:23:10.228Z,7.57
2023-02-07T01:25:38.750Z,7.47
2023-02-07T01:28:05.731Z,8.18
2023-02-07T01:30:32.511Z,7.82
2023-02-07T01:32:59.152Z,6.53
2023-02-07T01:35:25.804Z,7.90
2023-02-07T01:37:52.394Z,7.78
2023-02-07T01:40:19.298Z,8.65
2023-02-07T01:42:45.985Z,6.45
2023-02-07T01:45:27.810Z,6.97
2023-02-07T01:47:56.983Z,6.93
2023-02-07T01:50:23.930Z,3.80
2023-02-07T01:52:50.943Z,4.93
2023-02-07T01:55:22.580Z,4.55
2023-02-07T01:57:49.532Z,6.07
2023-02-07T02:00:17.396Z,6.57
2023-02-07T02:02:44.651Z,7.00
2023-02-07T02:05:12.030Z,5.43
2023-02-07T02:07:40.082Z,6.60
2023-02-07T02:10:21.956Z,9.02
2023-02-07T02:12:55.509Z,6.97
2023-02-07T02:15:27.995Z,6.35
2023-02-07T02:18:32.360Z,6.43
2023-02-07T02:21:10.907Z,6.05
2023-02-07T02:24:10.744Z,5.38
2023-02-07T02:26:56.347Z,6.45
2023-02-07T02:29:40.334Z,6.30
2023-02-07T02:32:12.732Z,7.95
2023-02-07T02:34:52.120Z,5.57
2023-02-07T02:37:34.735Z,5.95
2023-02-07T02:40:20.090Z,6.00
2023-02-07T02:42:54.261Z,5.75
2023-02-07T02:45:25.694Z,5.97
2023-02-07T02:47:54.003Z,6.43
2023-02-07T02:50:27.908Z,5.43
2023-02-07T02:52:55.068Z,5.45
2023-02-07T02:55:39.796Z,6.25
2023-02-07T02:58:51.393Z,6.05
2023-02-07T03:01:29.173Z,4.47
2023-02-07T03:04:01.540Z,5.15
2023-02-07T03:06:39.248Z,4.53
2023-02-07T03:09:20.586Z,8.15
2023-02-07T03:11:56.245Z,6.10
2023-02-07T03:14:28.546Z,5.55
2023-02-07T03:17:24.938Z,6.15
2023-02-07T03:20:04.702Z,6.45
2023-02-07T03:22:33.236Z,5.20
2023-02-07T03:25:03.780Z,6.20
2023-02-07T03:27:33.030Z,6.95
2023-02-07T03:30:05.170Z,7.07
2023-02-07T03:32:37.090Z,5.35
2023-02-07T03:35:09.915Z,5.63
2023-02-07T03:37:44.308Z,4.57
2023-02-07T03:40:11.605Z,5.25
2023-02-07T03:42:50.275Z,4.82
2023-02-07T03:45:19.477Z,5.45
2023-02-07T03:47:46.515Z,4.03
2023-02-07T03:50:14.034Z,5.65
2023-02-07T03:52:40.710Z,5.43
2023-02-07T03:55:07.846Z,6.25
2023-02-07T03:57:34.799Z,6.22
2023-02-07T04:00:01.440Z,5.80
2023-02-07T04:02:28.109Z,5.72
2023-02-07T04:04:54.763Z,5.75
2023-02-07T04:07:21.450Z,6.18
2023-02-07T04:09:48.049Z,5.95
2023-02-07T04:12:14.647Z,6.22
2023-02-07T04:14:41.196Z,6.05
2023-02-07T04:17:07.775Z,5.75
2023-02-07T04:19:34.365Z,5.63
2023-02-07T04:22:00.961Z,7.95
2023-02-07T04:24:27.733Z,4.63
2023-02-07T04:26:54.432Z,5.60
2023-02-07T04:29:20.970Z,6.22
2023-02-07T04:31:47.670Z,5.75
2023-02-07T04:34:14.419Z,6.43
2023-02-07T04:36:41.105Z,6.40
2023-02-07T04:39:07.705Z,6.55
2023-02-07T04:41:34.475Z,6.30
2023-02-07T04:44:01.045Z,6.00
2023-02-07T04:46:28.472Z,6.10
2023-02-07T04:48:55.160Z,5.35
2023-02-07T04:51:21.729Z,5.72
2023-02-07T04:53:48.480Z,5.28
2023-02-07T04:56:15.323Z,6.63
2023-02-07T04:58:41.892Z,8.73
2023-02-07T05:01:08.581Z,6.60
2023-02-07T05:03:35.197Z,5.80
2023-02-07T05:06:01.840Z,6.35
2023-02-07T05:08:28.455Z,8.35
2023-02-07T05:10:55.969Z,6.07
2023-02-07T05:13:23.508Z,8.93
2023-02-07T05:15:50.268Z,7.18
2023-02-07T05:18:17.076Z,7.07
2023-02-07T05:20:43.996Z,8.35
2023-02-07T05:23:10.943Z,6.22
2023-02-07T05:25:37.872Z,6.43
2023-02-07T05:28:04.806Z,6.13
2023-02-07T05:30:31.701Z,6.70
2023-02-07T05:33:04.312Z,9.63
2023-02-07T05:35:36.540Z,10.05
2023-02-07T05:38:06.291Z,6.50
2023-02-07T05:40:36.532Z,5.00
2023-02-07T05:43:03.547Z,5.47
2023-02-07T05:45:30.278Z,9.93
2023-02-07T05:47:57.079Z,5.20
2023-02-07T05:50:24.163Z,8.40
2023-02-07T05:52:50.919Z,22.83
2023-02-07T05:55:17.633Z,10.43
2023-02-07T05:57:45.001Z,9.10
2023-02-07T06:00:14.565Z,9.32
2023-02-07T06:02:41.579Z,8.77
2023-02-07T06:05:10.714Z,8.30
2023-02-07T06:07:37.374Z,9.30
2023-02-07T06:10:05.825Z,8.65
2023-02-07T06:12:33.649Z,10.20
2023-02-07T06:15:00.480Z,27.38
2023-02-07T06:17:27.578Z,21.95
2023-02-07T06:19:54.290Z,20.13
2023-02-07T06:22:20.886Z,14.98
2023-02-07T06:24:47.478Z,14.02
2023-02-07T06:27:14.236Z,9.43
2023-02-07T06:29:40.804Z,7.90
2023-02-07T06:32:07.551Z,8.60
2023-02-07T06:34:34.188Z,10.02
2023-02-07T06:37:00.821Z,7.25
2023-02-07T06:39:27.418Z,8.82
2023-02-07T06:41:54.051Z,8.40
2023-02-07T06:44:20.619Z,8.18
2023-02-07T06:46:47.343Z,7.43
2023-02-07T06:49:13.926Z,7.55
2023-02-07T06:51:40.510Z,8.40
2023-02-07T06:54:09.851Z,9.70
2023-02-07T06:56:37.729Z,6.30
2023-02-07T06:59:04.951Z,6.70
2023-02-07T07:01:32.164Z,5.07
2023-02-07T07:03:58.796Z,4.55
2023-02-07T07:06:25.436Z,6.15
2023-02-07T07:08:52.101Z,6.55
2023-02-07T07:11:19.102Z,8.07
2023-02-07T07:13:45.888Z,6.47
2023-02-07T07:16:12.567Z,7.05
2023-02-07T07:18:39.469Z,11.10
2023-02-07T07:21:06.606Z,8.18
2023-02-07T07:23:33.513Z,7.57
2023-02-07T07:26:00.183Z,9.23
2023-02-07T07:28:26.812Z,10.68
2023-02-07T07:30:53.707Z,6.72
2023-02-07T07:33:20.450Z,8.25
2023-02-07T07:35:47.082Z,7.38
2023-02-07T07:38:13.707Z,10.25
2023-02-07T07:40:40.647Z,6.68
2023-02-07T07:43:07.449Z,6.80
2023-02-07T07:45:34.043Z,7.60
2023-02-07T07:48:00.709Z,5.10
2023-02-07T07:50:27.380Z,5.78
2023-02-07T07:52:53.963Z,4.88
2023-02-07T07:55:20.578Z,6.30
2023-02-07T07:57:47.174Z,9.40
2023-02-07T08:00:14.665Z,7.13
2023-02-07T08:02:42.384Z,6.10
2023-02-07T08:05:12.514Z,6.68
2023-02-07T08:07:40.355Z,6.22
2023-02-07T08:10:07.044Z,5.90
2023-02-07T08:12:33.697Z,5.68
2023-02-07T08:15:00.331Z,4.50
2023-02-07T08:17:27.033Z,3.80
2023-02-07T08:19:53.825Z,5.93
2023-02-07T08:22:20.729Z,5.13
2023-02-07T08:24:47.332Z,4.88
2023-02-07T08:27:13.949Z,5.47
2023-02-07T08:29:40.595Z,5.18
2023-02-07T08:32:07.295Z,3.88
2023-02-07T08:34:37.376Z,6.30
2023-02-07T08:37:06.032Z,3.95
2023-02-07T08:39:34.093Z,3.85
2023-02-07T08:42:00.714Z,4.70
2023-02-07T08:44:27.566Z,3.50
2023-02-07T08:46:54.185Z,5.45
2023-02-07T08:49:20.882Z,6.43
2023-02-07T08:51:47.550Z,4.50
2023-02-07T08:54:14.389Z,4.13
2023-02-07T08:56:41.046Z,4.55
2023-02-07T08:59:07.652Z,3.92
2023-02-07T09:01:34.296Z,6.32
2023-02-07T09:04:01.035Z,5.22
2023-02-07T09:06:27.681Z,3.30
2023-02-07T09:08:54.617Z,5.18
2023-02-07T09:11:22.359Z,4.35
2023-02-07T09:13:49.144Z,3.45
2023-02-07T09:16:15.921Z,3.53
2023-02-07T09:18:42.713Z,3.13
2023-02-07T09:21:09.460Z,3.70
2023-02-07T09:23:36.570Z,4.30
2023-02-07T09:26:05.686Z,5.03
2023-02-07T09:28:32.846Z,5.93
2023-02-07T09:30:59.541Z,5.80
2023-02-07T09:33:26.248Z,3.95
2023-02-07T09:35:54.523Z,2.60
2023-02-07T09:38:22.840Z,3.60
2023-02-07T09:40:51.143Z,3.08
2023-02-07T09:43:50.628Z,5.85
2023-02-07T09:46:40.140Z,3.22
2023-02-07T09:49:15.792Z,2.92
2023-02-07T09:51:44.992Z,3.50
2023-02-07T09:54:39.713Z,7.43
2023-02-07T09:57:14.417Z,5.00
2023-02-07T09:59:48.394Z,3.80
2023-02-07T10:02:42.978Z,3.30
2023-02-07T10:05:22.967Z,3.25
2023-02-07T10:07:50.543Z,3.45
2023-02-07T10:10:18.189Z,3.55
2023-02-07T10:12:50.889Z,2.88
2023-02-07T10:16:11.372Z,3.10
2023-02-07T10:18:50.378Z,3.00
2023-02-07T10:21:24.959Z,3.17
2023-02-07T10:24:27.171Z,3.60
2023-02-07T10:27:15.839Z,3.13
2023-02-07T10:29:46.583Z,2.95
2023-02-07T10:32:27.822Z,2.92
2023-02-07T10:35:01.481Z,3.33
2023-02-07T10:37:34.794Z,2.78
2023-02-07T10:40:07.864Z,2.88
2023-02-07T10:42:37.260Z,2.45
2023-02-07T10:45:05.132Z,3.00
2023-02-07T10:47:39.925Z,2.75
2023-02-07T10:50:29.283Z,3.80
2023-02-07T10:52:58.272Z,2.60
2023-02-07T10:55:46.101Z,3.95
2023-02-07T10:58:23.260Z,3.25
2023-02-07T11:00:53.834Z,3.42
2023-02-07T11:03:23.222Z,3.20
2023-02-07T11:05:59.533Z,2.80
2023-02-07T11:08:28.784Z,2.55
2023-02-07T11:10:58.363Z,2.97
2023-02-07T11:13:30.525Z,2.53
2023-02-07T11:16:03.895Z,2.35
2023-02-07T11:18:44.860Z,2.42
2023-02-07T11:21:24.035Z,2.10
2023-02-07T11:23:51.967Z,4.00
2023-02-07T11:26:20.597Z,2.50
2023-02-07T11:28:51.196Z,2.55
2023-02-07T11:31:20.151Z,2.58
2023-02-07T11:33:47.878Z,3.78
2023-02-07T11:36:23.386Z,3.97
2023-02-07T11:38:55.475Z,1.92
2023-02-07T11:41:31.188Z,2.17
2023-02-07T11:44:01.342Z,2.33
2023-02-07T11:46:48.747Z,2.22
2023-02-07T11:49:27.961Z,2.20
2023-02-07T11:51:59.186Z,2.63
2023-02-07T11:54:26.773Z,2.45
2023-02-07T11:57:07.594Z,3.72
2023-02-07T11:59:34.736Z,1.90
2023-02-07T12:02:15.263Z,1.98
2023-02-07T12:04:42.709Z,1.90
2023-02-07T12:07:21.052Z,2.63
2023-02-07T12:10:05.888Z,3.22
2023-02-07T12:12:43.994Z,1.58
2023-02-07T12:15:25.552Z,2.17
2023-02-07T12:18:27.688Z,2.08
2023-02-07T12:21:22.489Z,3.42
2023-02-07T12:24:15.300Z,3.55
2023-02-07T12:26:51.672Z,3.08
2023-02-07T12:29:39.885Z,2.70
2023-02-07T12:32:42.155Z,1.67
2023-02-07T12:35:55.593Z,4.07
2023-02-07T12:38:42.477Z,1.65
2023-02-07T12:41:14.826Z,2.83
2023-02-07T12:44:23.672Z,2.30
2023-02-07T12:47:05.346Z,1.88
2023-02-07T12:49:51.121Z,2.63
2023-02-07T12:52:26.544Z,3.83
2023-02-07T12:55:20.424Z,2.10
2023-02-07T12:58:22.624Z,1.83
2023-02-07T13:01:07.354Z,1.70
2023-02-07T13:03:45.777Z,1.73
2023-02-07T13:06:24.394Z,1.67
2023-02-07T13:09:07.879Z,1.45
2023-02-07T13:11:41.167Z,1.77
2023-02-07T13:14:29.327Z,1.80
2023-02-07T13:17:14.158Z,1.55
2023-02-07T13:20:00.138Z,2.78
2023-02-07T13:22:37.091Z,1.58
2023-02-07T13:25:12.548Z,2.50
2023-02-07T13:27:41.139Z,1.80
2023-02-07T13:30:15.674Z,2.00
2023-02-07T13:32:42.861Z,2.05
2023-02-07T13:35:20.519Z,2.58
2023-02-07T13:37:58.781Z,1.70
2023-02-07T13:40:44.954Z,1.52
2023-02-07T13:43:18.501Z,1.80
2023-02-07T13:46:09.336Z,4.78
2023-02-07T13:49:08.622Z,2.00
2023-02-07T13:51:58.184Z,1.73
2023-02-07T13:54:49.060Z,2.10
2023-02-07T13:57:54.046Z,1.20
2023-02-07T14:00:25.994Z,1.80
2023-02-07T14:03:05.079Z,2.25
2023-02-07T14:05:39.600Z,2.67
2023-02-07T14:08:24.860Z,2.80
2023-02-07T14:10:54.370Z,1.70
2023-02-07T14:13:27.061Z,1.50
2023-02-07T14:15:56.009Z,2.28
2023-02-07T14:18:40.990Z,1.45
2023-02-07T14:21:20.047Z,1.65
2023-02-07T14:24:13.953Z,2.03
2023-02-07T14:26:40.494Z,2.92
2023-02-07T14:29:24.909Z,4.50
2023-02-07T14:31:55.243Z,3.85
2023-02-07T14:34:24.655Z,2.42
2023-02-07T14:36:54.829Z,1.60
2023-02-07T14:39:24.454Z,2.83
2023-02-07T14:41:52.305Z,1.50
2023-02-07T14:44:50.852Z,2.40
2023-02-07T14:47:26.385Z,2.05
2023-02-07T14:49:56.959Z,3.65
2023-02-07T14:52:33.823Z,2.35
2023-02-07T14:55:16.254Z,1.75
2023-02-07T14:57:50.452Z,1.48
2023-02-07T15:00:23.047Z,2.78
2023-02-07T15:02:58.330Z,1.40
2023-02-07T15:05:33.517Z,2.17
2023-02-07T15:08:02.997Z,1.83
2023-02-07T15:10:30.884Z,1.50
2023-02-07T15:12:57.558Z,4.15
2023-02-07T15:15:27.206Z,1.50
2023-02-07T15:17:57.803Z,1.80
2023-02-07T15:20:32.756Z,1.60
2023-02-07T15:23:01.903Z,1.60
2023-02-07T15:25:30.702Z,3.00
2023-02-07T15:28:02.215Z,2.95
2023-02-07T15:30:29.750Z,3.88
2023-02-07T15:32:56.560Z,1.83
2023-02-07T15:35:29.638Z,2.42
2023-02-07T15:38:23.705Z,1.60
2023-02-07T15:40:52.551Z,2.42
2023-02-07T15:43:27.156Z,3.38
2023-02-07T15:46:11.708Z,2.40
2023-02-07T15:48:55.116Z,2.80
2023-02-07T15:51:26.212Z,3.63
2023-02-07T15:53:56.788Z,4.15
2023-02-07T15:56:23.990Z,3.95
2023-02-07T15:58:51.450Z,3.58
2023-02-07T16:01:29.810Z,7.75
2023-02-07T16:03:57.791Z,5.30
2023-02-07T16:06:30.245Z,4.13
2023-02-07T16:08:59.104Z,4.35
2023-02-07T16:11:33.732Z,3.42
2023-02-07T16:14:12.350Z,3.80
2023-02-07T16:16:51.493Z,8.95
2023-02-07T16:19:27.373Z,12.38
2023-02-07T16:22:09.589Z,9.38
2023-02-07T16:24:38.455Z,8.43
2023-02-07T16:27:06.169Z,5.68
2023-02-07T16:29:34.767Z,6.57
2023-02-07T16:32:01.765Z,10.90
2023-02-07T16:34:28.381Z,4.88
2023-02-07T16:36:56.083Z,4.53
2023-02-07T16:39:26.213Z,4.55
2023-02-07T16:42:04.865Z,4.35
2023-02-07T16:44:35.098Z,4.00
2023-02-07T16:47:02.187Z,3.65
2023-02-07T16:49:31.595Z,3.45
2023-02-07T16:51:58.930Z,3.80
2023-02-07T16:54:26.067Z,4.35
2023-02-07T16:56:55.513Z,5.50
2023-02-07T16:59:23.199Z,4.90
2023-02-07T17:01:51.592Z,4.28
2023-02-07T17:04:20.127Z,6.38
2023-02-07T17:06:55.907Z,4.63
2023-02-07T17:09:25.366Z,4.65
2023-02-07T17:11:55.641Z,4.53
2023-02-07T17:14:31.227Z,4.50
2023-02-07T17:16:59.523Z,5.57
2023-02-07T17:19:27.227Z,4.60
2023-02-07T17:21:56.714Z,4.47
2023-02-07T17:24:23.506Z,6.60
2023-02-07T17:26:54.381Z,4.72
2023-02-07T17:29:21.683Z,4.78
2023-02-07T17:31:48.865Z,5.65
2023-02-07T17:34:15.657Z,4.75
2023-02-07T17:36:47.791Z,4.47
2023-02-07T17:39:16.037Z,6.68
2023-02-07T17:41:42.803Z,4.65
2023-02-07T17:57:05.860Z,4.85
2023-02-07T17:59:32.538Z,6.80
2023-02-07T18:01:59.176Z,5.47
2023-02-07T18:04:25.757Z,5.32
2023-02-07T18:06:52.408Z,5.20
2023-02-07T18:09:19.545Z,6.15
2023-02-07T18:11:46.298Z,4.93
2023-02-07T18:14:13.043Z,5.53
2023-02-07T18:16:39.866Z,7.13
2023-02-07T18:19:06.445Z,6.75
2023-02-07T18:21:35.948Z,6.45
2023-02-07T18:24:03.000Z,6.10
2023-02-07T18:26:29.575Z,6.10
2023-02-07T18:28:56.200Z,6.45
2023-02-07T18:31:24.915Z,6.13
2023-02-07T18:33:53.154Z,9.52
2023-02-07T18:36:21.839Z,8.35
2023-02-07T18:38:48.650Z,10.43
2023-02-07T18:41:21.755Z,7.68
2023-02-07T18:43:49.310Z,7.18
2023-02-07T18:46:19.008Z,7.00
2023-02-07T18:48:49.467Z,10.18
2023-02-07T18:51:17.068Z,6.45
2023-02-07T18:53:44.003Z,6.88
2023-02-07T18:56:13.283Z,7.28
2023-02-07T18:58:39.879Z,10.48
2023-02-07T19:01:10.198Z,6.57
2023-02-07T19:03:38.403Z,5.85
2023-02-07T19:06:06.672Z,5.45
2023-02-07T19:08:34.122Z,5.45
2023-02-07T19:11:02.767Z,5.88
2023-02-07T19:13:29.837Z,8.18
2023-02-07T19:16:07.745Z,8.40
2023-02-07T19:18:34.875Z,6.97
2023-02-07T19:21:06.745Z,8.32
2023-02-07T19:23:33.690Z,6.72
2023-02-07T19:26:00.724Z,7.05
2023-02-07T19:28:27.913Z,7.50
2023-02-07T19:30:54.565Z,8.45
2023-02-07T19:33:22.202Z,7.88
2023-02-07T19:35:49.421Z,6.45
2023-02-07T19:38:16.762Z,7.70
2023-02-07T19:40:44.542Z,5.90
2023-02-07T19:43:11.275Z,6.18
2023-02-07T19:45:38.540Z,7.25
2023-02-07T19:48:05.319Z,6.93
2023-02-07T19:50:31.946Z,7.20
2023-02-07T19:52:58.544Z,7.78
2023-02-07T19:55:25.318Z,7.13
2023-02-07T19:57:51.885Z,6.57
2023-02-07T20:00:18.694Z,6.55
2023-02-07T20:02:45.343Z,5.93
2023-02-07T20:05:11.939Z,6.97
2023-02-07T20:07:38.685Z,7.85
2023-02-07T20:10:05.557Z,6.60
2023-02-07T20:12:32.246Z,7.03
2023-02-07T20:14:58.846Z,7.15
2023-02-07T20:17:25.442Z,7.03
2023-02-07T20:19:52.697Z,9.77
2023-02-07T20:22:19.261Z,11.10
2023-02-07T20:24:45.913Z,9.85
2023-02-07T20:27:12.725Z,11.38
2023-02-07T20:29:39.315Z,10.43
2023-02-07T20:32:06.006Z,11.50
2023-02-07T20:34:32.762Z,10.88
2023-02-07T20:36:59.457Z,9.95
2023-02-07T20:39:26.627Z,9.93
2023-02-07T20:41:53.262Z,10.75
2023-02-07T20:44:22.238Z,10.82
2023-02-07T20:46:50.571Z,11.63
2023-02-07T20:49:21.778Z,9.70
2023-02-07T20:51:51.132Z,9.40
2023-02-07T20:54:20.267Z,8.63
2023-02-07T20:56:47.158Z,9.02
2023-02-07T20:59:18.243Z,8.73
2023-02-07T21:01:45.078Z,10.27
2023-02-07T21:04:11.868Z,9.77
2023-02-07T21:06:39.145Z,7.35
2023-02-07T21:09:07.212Z,8.85
2023-02-07T21:11:37.165Z,10.18
2023-02-07T21:14:07.043Z,8.80
2023-02-07T21:16:34.234Z,7.88
2023-02-07T21:19:00.980Z,8.73
2023-02-07T21:21:28.885Z,9.18
2023-02-07T21:23:55.802Z,7.68
2023-02-07T21:26:22.483Z,8.90
2023-02-07T21:28:49.411Z,8.52
2023-02-07T21:31:21.696Z,7.82
2023-02-07T21:33:49.689Z,8.63
2023-02-07T21:36:22.383Z,8.45
2023-02-07T21:38:51.474Z,8.75
2023-02-07T21:41:24.856Z,6.95
2023-02-07T21:43:53.761Z,8.70
2023-02-07T21:46:23.014Z,10.55
2023-02-07T21:48:52.843Z,14.52
2023-02-07T21:51:24.361Z,8.88
2023-02-07T21:53:52.928Z,10.95
2023-02-07T21:56:23.389Z,10.88
2023-02-07T21:58:59.985Z,14.35
2023-02-07T22:01:27.653Z,22.73
2023-02-07T22:03:55.901Z,17.10
2023-02-07T22:06:22.873Z,15.00
2023-02-07T22:08:52.207Z,15.85
2023-02-07T22:11:21.038Z,14.73
2023-02-07T22:13:49.524Z,12.02
2023-02-07T22:16:17.695Z,14.38
2023-02-07T22:18:44.563Z,11.70
2023-02-07T22:21:16.254Z,11.38
2023-02-07T22:23:42.975Z,14.50
2023-02-07T22:26:09.909Z,10.98
2023-02-07T22:28:38.707Z,13.38
2023-02-07T22:31:13.178Z,10.35
2023-02-07T22:33:40.670Z,12.18
2023-02-07T22:36:19.945Z,13.43
2023-02-07T22:38:47.374Z,13.73
2023-02-07T22:41:14.238Z,12.95
2023-02-07T22:43:41.362Z,15.27
2023-02-07T22:46:12.228Z,18.40
2023-02-07T22:48:39.774Z,15.07
2023-02-07T22:51:20.909Z,15.00
2023-02-07T22:53:48.670Z,16.65
2023-02-07T22:56:15.816Z,14.18
2023-02-07T22:58:42.476Z,12.88
2023-02-07T23:01:28.579Z,15.95
2023-02-07T23:03:56.252Z,15.15
2023-02-07T23:06:23.933Z,11.35
2023-02-07T23:08:50.979Z,15.68
2023-02-07T23:11:18.921Z,13.93
2023-02-07T23:13:45.663Z,14.00
2023-02-07T23:16:18.711Z,13.55
2023-02-07T23:18:45.448Z,17.77
2023-02-07T23:21:14.469Z,11.77
2023-02-07T23:23:41.707Z,12.38
2023-02-07T23:26:10.736Z,12.45
2023-02-07T23:28:38.701Z,11.95
2023-02-07T23:31:10.456Z,12.40
2023-02-07T23:33:37.593Z,11.80
2023-02-07T23:36:05.271Z,9.63
2023-02-07T23:38:32.450Z,9.85
2023-02-07T23:40:59.154Z,12.38
2023-02-07T23:43:26.016Z,8.95
2023-02-07T23:45:52.854Z,12.10
2023-02-07T23:48:19.652Z,10.73
2023-02-07T23:50:53.991Z,9.25
2023-02-07T23:53:21.164Z,12.18
2023-02-07T23:55:49.769Z,10.93
2023-02-07T23:58:17.214Z,9.88
